Vohburg — V2OW7 — position and weather

sailwx.info

Track history (hours):
 
Tides and Currents Weather Stations Pressure Air Temp Water Temp Dewpoint Dewpoint Depression Visibility Wind Speed Wind Dir Waves Ship Positions

Vohburg

Last reported at 2017-Jan-23 18:17 UTC. Time now 2017-Jan-23 20:56 UTC.
Position N 56°19' E 012°18'.

Length 140 m; draft 7.5 m.

Type: Ship (hazmat cat A). MMSI: 305773000.

Date/timePositionNaut miles runAvg speedWind from/ knotsBaromVisibWave heightAir tempDewpointWater temp
2017-Jan-23 18:17N 56°19' E 012°18'1115.1
2017-Jan-23 17:33N 56°10' E 012°29'1515.4
2017-Jan-23 16:34N 55°57' E 012°43'1615.5
2017-Jan-23 15:33N 55°41' E 012°41'1212.3
2017-Jan-23 14:33N 55°29' E 012°42'1312.7
2017-Jan-23 13:33N 55°17' E 012°47'1515.0
2017-Jan-23 12:33N 55°15' E 013°14'1615.2
2017-Jan-23 11:29N 55°14' E 013°42'1415.2
2017-Jan-23 10:33N 55°14' E 014°07'1414.2
2017-Jan-23 09:33N 55°21' E 014°28'1515.2
2017-Jan-23 08:33N 55°31' E 014°48'1616.5
2017-Jan-23 07:33N 55°39' E 015°13'352 7.5
2017-Jan-21 08:30N 59°37' E 023°18'1516.2
2017-Jan-21 07:33N 59°42' E 023°47'6915.9
2017-Jan-21 03:13N 59°57' E 026°01'1015.7
2017-Jan-21 02:33N 59°59' E 026°21'1615.5
2017-Jan-21 01:33N 59°60' E 026°52'1615.2
2017-Jan-21 00:31N 60°05' E 027°22'1515.8
2017-Jan-20 23:33N 60°12' E 027°49'1615.7
2017-Jan-20 22:33N 60°07' E 028°19'1515.1
2017-Jan-20 21:33N 60°02' E 028°47'2211.0
2017-Jan-20 19:33N 60°01' E 029°32'6 5.7
2017-Jan-20 18:33N 59°60' E 029°42'1 0.8
2017-Jan-20 17:33N 60°00' E 029°43'0 0.0
2017-Jan-20 16:32N 60°00' E 029°43'0 0.0
2017-Jan-20 15:31N 60°00' E 029°43'0 0.0
2017-Jan-20 14:31N 60°00' E 029°43'0 0.0
2017-Jan-20 13:31N 60°00' E 029°43'0 0.0
2017-Jan-20 12:33N 60°00' E 029°43'0 0.0
2017-Jan-20 11:31N 60°00' E 029°43'0 0.0
2017-Jan-20 10:31N 60°00' E 029°43'0 0.0
2017-Jan-20 09:28N 60°00' E 029°43'0 0.0
2017-Jan-20 07:13N 60°00' E 029°43'0 0.0
2017-Jan-20 06:31N 60°00' E 029°43'1 0.6
2017-Jan-20 05:33N 59°60' E 029°42'6 6.3
2017-Jan-20 04:33N 60°01' E 029°30'1111.2
2017-Jan-20 03:33N 60°02' E 029°08'1111.2
2017-Jan-20 02:33N 60°02' E 028°45'1211.8
2017-Jan-20 01:33N 60°04' E 028°22'1212.5
2017-Jan-20 00:33N 60°09' E 027°59'1211.9
2017-Jan-19 23:33N 60°08' E 027°35'1312.9
2017-Jan-19 22:32N 60°01' E 027°13'1212.1
2017-Jan-19 21:34N 59°59' E 026°50'1312.8
2017-Jan-19 20:33N 59°58' E 026°24'60 3.7
2017-Jan-19 04:22N 59°44' E 024°27'1114.1
2017-Jan-19 03:33N 59°41' E 024°05'1414.2
2017-Jan-19 02:34N 59°36' E 023°39'1414.2
2017-Jan-19 01:34N 59°33' E 023°12'34615.7
2017-Jan-18 03:33N 55°36' E 015°21'1716.7
2017-Jan-18 02:33N 55°28' E 014°55'1615.9
2017-Jan-18 01:33N 55°19' E 014°32'1716.6
2017-Jan-18 00:33N 55°06' E 014°14'1716.7
2017-Jan-17 23:33N 54°57' E 013°49'6516.0
2017-Jan-17 19:31N 54°25' E 012°12'3716.4
2017-Jan-17 17:15N 54°07' E 011°16'4 0.3
2017-Jan-17 04:05N 54°08' E 011°10'1112.9
2017-Jan-17 03:16N 54°16' E 011°21'913.1
2017-Jan-17 02:33N 54°25' E 011°24'1312.9
2017-Jan-17 01:33N 54°35' E 011°10'1313.2
2017-Jan-17 00:33N 54°43' E 010°52'1312.9
2017-Jan-16 23:33N 54°56' E 010°54'1312.8
2017-Jan-16 22:33N 55°08' E 011°02'5512.5
2017-Jan-16 18:08N 56°03' E 011°03'813.7
2017-Jan-16 17:33N 56°11' E 011°04'6913.9
2017-Jan-16 12:33N 57°19' E 010°42'1414.3
2017-Jan-16 11:34N 57°33' E 010°44'1313.3
2017-Jan-16 10:33N 57°47' E 010°40'19215.9
2017-Jan-15 22:30N 55°29' E 006°37'9516.0
2017-Jan-15 16:34N 54°08' E 005°10'1615.6
2017-Jan-15 15:33N 53°54' E 005°00'4615.3
2017-Jan-15 12:33N 53°12' E 004°31'1515.1
2017-Jan-15 11:34N 52°58' E 004°19'1514.9
2017-Jan-15 10:32N 52°45' E 004°07'1514.9
2017-Jan-15 09:31N 52°33' E 003°51'5215.8
2017-Jan-15 06:12N 51°46' E 003°13'1116.6
2017-Jan-15 05:33N 51°39' E 003°01'1616.4
2017-Jan-15 04:34N 51°25' E 002°46'1111.3
2017-Jan-15 03:34N 51°24' E 003°04'5 5.3
2017-Jan-15 02:31N 51°21' E 003°11'0 0.0
2017-Jan-15 01:31N 51°21' E 003°11'0 0.0
2017-Jan-15 00:31N 51°21' E 003°11'0 0.0
2017-Jan-14 23:31N 51°21' E 003°11'0 0.0
2017-Jan-14 22:31N 51°21' E 003°11'0 0.0
2017-Jan-14 21:31N 51°21' E 003°11'0 0.0
2017-Jan-14 20:31N 51°21' E 003°11'0 0.0
2017-Jan-14 19:31N 51°21' E 003°11'0 0.0
2017-Jan-14 18:31N 51°21' E 003°11'0 0.0
2017-Jan-14 17:31N 51°21' E 003°11'4 4.2
2017-Jan-14 16:33N 51°24' E 003°07'1716.9
2017-Jan-14 15:34N 51°22' E 002°40'7 7.3
2017-Jan-14 14:33N 51°22' E 002°28'1211.8
2017-Jan-14 13:33N 51°20' E 002°09'1413.9
2017-Jan-14 12:34N 51°28' E 001°52'1313.1
2017-Jan-14 11:33N 51°27' E 001°31'4 3.7
2017-Jan-14 10:34N 51°25' E 001°26'0 0.0
2017-Jan-14 09:33N 51°25' E 001°26'0 0.0
2017-Jan-14 08:34N 51°25' E 001°26'0 0.0
2017-Jan-14 07:34N 51°25' E 001°26'0 0.0
2017-Jan-14 06:33N 51°25' E 001°26'0 0.0
2017-Jan-14 05:33N 51°25' E 001°26'0 0.0
2017-Jan-14 04:34N 51°25' E 001°26'0 0.0
2017-Jan-14 03:33N 51°25' E 001°26'2 0.4
2017-Jan-13 23:33N 51°27' E 001°27'1615.8
2017-Jan-13 22:33N 51°29' E 001°02'1413.6
2017-Jan-13 21:33N 51°26' E 000°41'0 0.0
2017-Jan-13 20:32N 51°26' E 000°41'0 0.0
2017-Jan-13 19:32N 51°26' E 000°41'0 0.0
2017-Jan-13 18:32N 51°26' E 000°41'  
Track history (hours):
 
Tides and Currents Weather Stations Pressure Air Temp Water Temp Dewpoint Dewpoint Depression Visibility Wind Speed Wind Dir Waves Ship Positions

Vohburg

Last reported at 2017-Jan-23 18:17 UTC. Time now 2017-Jan-23 20:56 UTC.
Position N 56°19' E 012°18'.

Length 140 m; draft 7.5 m.

Type: Ship (hazmat cat A). MMSI: 305773000.

Date/timePositionNaut miles runAvg speedWind from/ knotsBaromVisibWave heightAir tempDewpointWater temp
2017-Jan-23 18:17N 56°19' E 012°18'1115.1
2017-Jan-23 17:33N 56°10' E 012°29'1515.4
2017-Jan-23 16:34N 55°57' E 012°43'1615.5
2017-Jan-23 15:33N 55°41' E 012°41'1212.3
2017-Jan-23 14:33N 55°29' E 012°42'1312.7
2017-Jan-23 13:33N 55°17' E 012°47'1515.0
2017-Jan-23 12:33N 55°15' E 013°14'1615.2
2017-Jan-23 11:29N 55°14' E 013°42'1415.2
2017-Jan-23 10:33N 55°14' E 014°07'1414.2
2017-Jan-23 09:33N 55°21' E 014°28'1515.2
2017-Jan-23 08:33N 55°31' E 014°48'1616.5
2017-Jan-23 07:33N 55°39' E 015°13'352 7.5
2017-Jan-21 08:30N 59°37' E 023°18'1516.2
2017-Jan-21 07:33N 59°42' E 023°47'6915.9
2017-Jan-21 03:13N 59°57' E 026°01'1015.7
2017-Jan-21 02:33N 59°59' E 026°21'1615.5
2017-Jan-21 01:33N 59°60' E 026°52'1615.2
2017-Jan-21 00:31N 60°05' E 027°22'1515.8
2017-Jan-20 23:33N 60°12' E 027°49'1615.7
2017-Jan-20 22:33N 60°07' E 028°19'1515.1
2017-Jan-20 21:33N 60°02' E 028°47'2211.0
2017-Jan-20 19:33N 60°01' E 029°32'6 5.7
2017-Jan-20 18:33N 59°60' E 029°42'1 0.8
2017-Jan-20 17:33N 60°00' E 029°43'0 0.0
2017-Jan-20 16:32N 60°00' E 029°43'0 0.0
2017-Jan-20 15:31N 60°00' E 029°43'0 0.0
2017-Jan-20 14:31N 60°00' E 029°43'0 0.0
2017-Jan-20 13:31N 60°00' E 029°43'0 0.0
2017-Jan-20 12:33N 60°00' E 029°43'0 0.0
2017-Jan-20 11:31N 60°00' E 029°43'0 0.0
2017-Jan-20 10:31N 60°00' E 029°43'0 0.0
2017-Jan-20 09:28N 60°00' E 029°43'0 0.0
2017-Jan-20 07:13N 60°00' E 029°43'0 0.0
2017-Jan-20 06:31N 60°00' E 029°43'1 0.6
2017-Jan-20 05:33N 59°60' E 029°42'6 6.3
2017-Jan-20 04:33N 60°01' E 029°30'1111.2
2017-Jan-20 03:33N 60°02' E 029°08'1111.2
2017-Jan-20 02:33N 60°02' E 028°45'1211.8
2017-Jan-20 01:33N 60°04' E 028°22'1212.5
2017-Jan-20 00:33N 60°09' E 027°59'1211.9
2017-Jan-19 23:33N 60°08' E 027°35'1312.9
2017-Jan-19 22:32N 60°01' E 027°13'1212.1
2017-Jan-19 21:34N 59°59' E 026°50'1312.8
2017-Jan-19 20:33N 59°58' E 026°24'60 3.7
2017-Jan-19 04:22N 59°44' E 024°27'1114.1
2017-Jan-19 03:33N 59°41' E 024°05'1414.2
2017-Jan-19 02:34N 59°36' E 023°39'1414.2
2017-Jan-19 01:34N 59°33' E 023°12'34615.7
2017-Jan-18 03:33N 55°36' E 015°21'1716.7
2017-Jan-18 02:33N 55°28' E 014°55'1615.9
2017-Jan-18 01:33N 55°19' E 014°32'1716.6
2017-Jan-18 00:33N 55°06' E 014°14'1716.7
2017-Jan-17 23:33N 54°57' E 013°49'6516.0
2017-Jan-17 19:31N 54°25' E 012°12'3716.4
2017-Jan-17 17:15N 54°07' E 011°16'4 0.3
2017-Jan-17 04:05N 54°08' E 011°10'1112.9
2017-Jan-17 03:16N 54°16' E 011°21'913.1
2017-Jan-17 02:33N 54°25' E 011°24'1312.9
2017-Jan-17 01:33N 54°35' E 011°10'1313.2
2017-Jan-17 00:33N 54°43' E 010°52'1312.9
2017-Jan-16 23:33N 54°56' E 010°54'1312.8
2017-Jan-16 22:33N 55°08' E 011°02'5512.5
2017-Jan-16 18:08N 56°03' E 011°03'813.7
2017-Jan-16 17:33N 56°11' E 011°04'6913.9
2017-Jan-16 12:33N 57°19' E 010°42'1414.3
2017-Jan-16 11:34N 57°33' E 010°44'1313.3
2017-Jan-16 10:33N 57°47' E 010°40'19215.9
2017-Jan-15 22:30N 55°29' E 006°37'9516.0
2017-Jan-15 16:34N 54°08' E 005°10'1615.6
2017-Jan-15 15:33N 53°54' E 005°00'4615.3
2017-Jan-15 12:33N 53°12' E 004°31'1515.1
2017-Jan-15 11:34N 52°58' E 004°19'1514.9
2017-Jan-15 10:32N 52°45' E 004°07'1514.9
2017-Jan-15 09:31N 52°33' E 003°51'5215.8
2017-Jan-15 06:12N 51°46' E 003°13'1116.6
2017-Jan-15 05:33N 51°39' E 003°01'1616.4
2017-Jan-15 04:34N 51°25' E 002°46'1111.3
2017-Jan-15 03:34N 51°24' E 003°04'5 5.3
2017-Jan-15 02:31N 51°21' E 003°11'0 0.0
2017-Jan-15 01:31N 51°21' E 003°11'0 0.0
2017-Jan-15 00:31N 51°21' E 003°11'0 0.0
2017-Jan-14 23:31N 51°21' E 003°11'0 0.0
2017-Jan-14 22:31N 51°21' E 003°11'0 0.0
2017-Jan-14 21:31N 51°21' E 003°11'0 0.0
2017-Jan-14 20:31N 51°21' E 003°11'0 0.0
2017-Jan-14 19:31N 51°21' E 003°11'0 0.0
2017-Jan-14 18:31N 51°21' E 003°11'0 0.0
2017-Jan-14 17:31N 51°21' E 003°11'4 4.2
2017-Jan-14 16:33N 51°24' E 003°07'1716.9
2017-Jan-14 15:34N 51°22' E 002°40'7 7.3
2017-Jan-14 14:33N 51°22' E 002°28'1211.8
2017-Jan-14 13:33N 51°20' E 002°09'1413.9
2017-Jan-14 12:34N 51°28' E 001°52'1313.1
2017-Jan-14 11:33N 51°27' E 001°31'4 3.7
2017-Jan-14 10:34N 51°25' E 001°26'0 0.0
2017-Jan-14 09:33N 51°25' E 001°26'0 0.0
2017-Jan-14 08:34N 51°25' E 001°26'0 0.0
2017-Jan-14 07:34N 51°25' E 001°26'0 0.0
2017-Jan-14 06:33N 51°25' E 001°26'0 0.0
2017-Jan-14 05:33N 51°25' E 001°26'0 0.0
2017-Jan-14 04:34N 51°25' E 001°26'0 0.0
2017-Jan-14 03:33N 51°25' E 001°26'2 0.4
2017-Jan-13 23:33N 51°27' E 001°27'1615.8
2017-Jan-13 22:33N 51°29' E 001°02'1413.6
2017-Jan-13 21:33N 51°26' E 000°41'0 0.0
2017-Jan-13 20:32N 51°26' E 000°41'0 0.0
2017-Jan-13 19:32N 51°26' E 000°41'0 0.0
2017-Jan-13 18:32N 51°26' E 000°41'  

Dump ship's entire track history